createdAt,value
2023-01-02T00:01:51.467Z,9.89
2023-01-02T00:04:55.871Z,9.84
2023-01-02T00:08:00.256Z,9.89
2023-01-02T00:11:04.931Z,9.87
2023-01-02T00:14:09.200Z,9.87
2023-01-02T00:17:13.449Z,9.86
2023-01-02T00:20:17.797Z,9.81
2023-01-02T00:23:22.274Z,9.88
2023-01-02T00:26:26.831Z,9.79
2023-01-02T00:29:31.486Z,9.81
2023-01-02T00:32:35.933Z,9.81
2023-01-02T00:35:39.913Z,9.76
2023-01-02T00:38:44.743Z,9.75
2023-01-02T00:41:49.234Z,9.81
2023-01-02T00:44:53.549Z,9.75
2023-01-02T00:47:58.033Z,9.74
2023-01-02T00:51:02.036Z,9.71
2023-01-02T00:54:06.666Z,9.68
2023-01-02T00:57:10.992Z,9.75
2023-01-02T01:00:23.457Z,9.81
2023-01-02T01:03:28.430Z,9.70
2023-01-02T01:06:34.669Z,9.73
2023-01-02T01:09:39.129Z,9.74
2023-01-02T01:12:43.533Z,9.71
2023-01-02T01:15:47.905Z,9.67
2023-01-02T01:18:56.594Z,9.69
2023-01-02T01:22:01.342Z,9.68
2023-01-02T01:25:06.057Z,9.62
2023-01-02T01:28:10.443Z,9.61
2023-01-02T01:31:16.716Z,9.60
2023-01-02T01:34:20.987Z,9.63
2023-01-02T01:37:25.004Z,9.75
2023-01-02T01:40:29.226Z,9.74
2023-01-02T01:43:40.504Z,9.69
2023-01-02T01:46:47.785Z,9.68
2023-01-02T01:50:17.251Z,9.66
2023-01-02T01:53:22.706Z,9.68
2023-01-02T01:56:27.661Z,9.62
2023-01-02T01:59:34.677Z,9.60
2023-01-02T02:02:44.376Z,9.67
2023-01-02T02:05:50.289Z,9.67
2023-01-02T02:08:59.983Z,9.81
2023-01-02T02:12:06.652Z,9.78
2023-01-02T02:15:20.330Z,9.77
2023-01-02T02:18:37.313Z,9.74
2023-01-02T02:22:16.902Z,9.73
2023-01-02T02:25:45.132Z,9.76
2023-01-02T02:29:13.853Z,9.74
2023-01-02T02:32:39.671Z,9.75
2023-01-02T02:36:11.036Z,9.70
2023-01-02T02:39:36.041Z,9.69
2023-01-02T02:43:18.725Z,9.77
2023-01-02T02:46:31.772Z,9.75
2023-01-02T02:50:25.245Z,9.68
2023-01-02T02:53:39.959Z,9.69
2023-01-02T02:56:46.888Z,9.80
2023-01-02T02:59:52.479Z,9.79
2023-01-02T03:02:57.235Z,9.81
2023-01-02T03:06:20.058Z,9.84
2023-01-02T03:09:43.874Z,9.82
2023-01-02T03:13:19.839Z,9.85
2023-01-02T03:16:36.669Z,9.89
2023-01-02T03:19:52.556Z,9.88
2023-01-02T03:23:04.500Z,9.85
2023-01-02T03:26:10.196Z,9.82
2023-01-02T03:29:34.350Z,9.82
2023-01-02T03:32:50.009Z,9.79
2023-01-02T03:35:59.459Z,9.83
2023-01-02T03:39:18.603Z,9.85
2023-01-02T03:42:32.520Z,9.88
2023-01-02T03:45:51.151Z,9.90
2023-01-02T03:49:30.254Z,9.88
2023-01-02T03:52:34.812Z,9.89
2023-01-02T03:55:43.350Z,9.88
2023-01-02T03:59:03.693Z,9.88
2023-01-02T04:02:54.863Z,9.87
2023-01-02T04:06:16.888Z,9.88
2023-01-02T04:09:25.399Z,9.93
2023-01-02T04:12:33.160Z,9.93
2023-01-02T04:15:40.100Z,9.94
2023-01-02T04:19:10.789Z,9.96
2023-01-02T04:22:24.524Z,9.98
2023-01-02T04:25:50.149Z,9.97
2023-01-02T04:28:55.205Z,10.00
2023-01-02T04:32:14.717Z,10.02
2023-01-02T04:35:23.758Z,10.03
2023-01-02T04:38:28.254Z,10.04
2023-01-02T04:41:33.916Z,10.07
2023-01-02T04:44:38.473Z,10.04
2023-01-02T04:47:43.411Z,10.05
2023-01-02T04:50:48.988Z,10.05
2023-01-02T04:53:54.277Z,10.07
2023-01-02T04:56:58.527Z,10.10
2023-01-02T05:00:04.133Z,10.13
2023-01-02T05:03:08.216Z,10.10
2023-01-02T05:06:12.486Z,10.11
2023-01-02T05:09:17.205Z,10.16
2023-01-02T05:12:21.773Z,10.17
2023-01-02T05:15:26.248Z,10.21
2023-01-02T05:18:31.979Z,10.22
2023-01-02T05:21:54.515Z,10.26
2023-01-02T05:24:58.898Z,10.29
2023-01-02T05:28:04.344Z,10.30
2023-01-02T05:31:08.931Z,10.30
2023-01-02T05:34:16.948Z,10.32
2023-01-02T05:37:21.673Z,10.34
2023-01-02T05:40:25.828Z,10.39
2023-01-02T05:43:35.629Z,10.37
2023-01-02T05:46:40.574Z,10.39
2023-01-02T05:49:45.075Z,10.39
2023-01-02T05:52:49.581Z,10.40
2023-01-02T05:55:53.936Z,10.42
2023-01-02T05:58:58.505Z,10.44
2023-01-02T06:02:03.421Z,10.46
2023-01-02T06:05:08.338Z,10.42
2023-01-02T06:08:12.515Z,10.44
2023-01-02T06:11:17.181Z,10.44
2023-01-02T06:14:22.330Z,10.43
2023-01-02T06:17:27.053Z,10.46
2023-01-02T06:20:31.059Z,10.43
2023-01-02T06:23:36.075Z,10.48
2023-01-02T06:26:40.417Z,10.49
2023-01-02T06:29:44.647Z,10.51
2023-01-02T06:32:48.897Z,10.53
2023-01-02T06:36:01.694Z,10.51
2023-01-02T06:39:06.303Z,10.53
2023-01-02T06:42:11.133Z,10.55
2023-01-02T06:45:15.878Z,10.59
2023-01-02T06:48:20.470Z,10.61
2023-01-02T06:51:25.278Z,10.61
2023-01-02T06:54:29.497Z,10.61
2023-01-02T06:57:33.843Z,10.66
2023-01-02T07:00:37.942Z,10.63
2023-01-02T07:03:42.487Z,10.66
2023-01-02T07:06:46.873Z,10.70
2023-01-02T07:09:50.988Z,10.66
2023-01-02T07:12:55.593Z,10.64
2023-01-02T07:16:06.710Z,10.70
2023-01-02T07:19:11.269Z,10.74
2023-01-02T07:22:15.432Z,10.71
2023-01-02T07:25:21.565Z,10.74
2023-01-02T07:28:25.915Z,10.77
2023-01-02T07:31:30.489Z,10.76
2023-01-02T07:34:35.212Z,10.81
2023-01-02T07:37:39.375Z,10.77
2023-01-02T07:40:43.853Z,10.80
2023-01-02T07:43:48.791Z,10.86
2023-01-02T07:46:52.977Z,10.85
2023-01-02T07:49:57.477Z,10.80
2023-01-02T07:53:01.871Z,10.81
2023-01-02T07:56:08.063Z,10.85
2023-01-02T07:59:12.071Z,10.85
2023-01-02T08:02:16.595Z,10.86
2023-01-02T08:05:22.329Z,10.89
2023-01-02T08:08:26.677Z,10.89
2023-01-02T08:11:31.219Z,10.93
2023-01-02T08:14:35.390Z,10.90
2023-01-02T08:17:41.295Z,10.90
2023-01-02T08:20:52.652Z,10.93
2023-01-02T08:23:57.044Z,10.90
2023-01-02T08:27:02.140Z,10.91
2023-01-02T08:30:07.251Z,10.95
2023-01-02T08:33:11.614Z,10.97
2023-01-02T08:36:16.177Z,10.98
2023-01-02T08:39:20.455Z,10.98
2023-01-02T08:42:24.618Z,10.93
2023-01-02T08:45:28.976Z,10.94
2023-01-02T08:48:34.114Z,10.97
2023-01-02T08:51:38.544Z,10.97
2023-01-02T08:54:43.019Z,11.01
2023-01-02T08:57:47.496Z,10.97
2023-01-02T09:00:52.634Z,10.97
2023-01-02T09:03:58.092Z,10.95
2023-01-02T09:07:27.901Z,10.98
2023-01-02T09:10:32.148Z,11.02
2023-01-02T09:13:36.444Z,10.98
2023-01-02T09:16:40.895Z,11.01
2023-01-02T09:19:45.270Z,11.03
2023-01-02T09:22:49.893Z,11.02
2023-01-02T09:26:02.490Z,11.01
2023-01-02T09:29:11.044Z,11.00
2023-01-02T09:32:15.750Z,11.03
2023-01-02T09:35:20.064Z,11.05
2023-01-02T09:38:24.315Z,11.03
2023-01-02T09:41:42.185Z,11.03
2023-01-02T09:44:54.132Z,11.08
2023-01-02T09:48:00.177Z,11.04
2023-01-02T09:51:07.954Z,11.10
2023-01-02T09:54:28.388Z,11.01
2023-01-02T09:57:56.376Z,10.81
2023-01-02T10:01:00.790Z,10.69
2023-01-02T10:05:10.618Z,10.56
2023-01-02T10:08:31.766Z,10.48
2023-01-02T10:11:58.282Z,10.44
2023-01-02T10:15:26.033Z,10.41
2023-01-02T10:18:37.665Z,10.39
2023-01-02T10:21:45.200Z,10.40
2023-01-02T10:25:16.016Z,10.34
2023-01-02T10:28:46.327Z,10.33
2023-01-02T10:31:59.620Z,10.29
2023-01-02T10:35:07.165Z,10.18
2023-01-02T10:38:14.703Z,10.07
2023-01-02T10:41:19.417Z,10.02
2023-01-02T10:44:38.335Z,9.93
2023-01-02T10:47:43.197Z,9.87
2023-01-02T10:50:56.526Z,9.84
2023-01-02T10:54:07.595Z,9.76
2023-01-02T10:57:22.882Z,9.63
2023-01-02T11:00:30.681Z,9.50
2023-01-02T11:03:35.392Z,9.31
2023-01-02T11:07:03.168Z,9.22
2023-01-02T11:10:32.708Z,9.02
2023-01-02T11:13:57.701Z,8.86
2023-01-02T11:17:24.847Z,8.73
2023-01-02T11:20:35.602Z,8.69
2023-01-02T11:23:44.994Z,8.64
2023-01-02T11:26:50.610Z,8.49
2023-01-02T11:29:55.188Z,8.43
2023-01-02T11:33:19.602Z,8.33
2023-01-02T11:36:23.833Z,8.33
2023-01-02T11:39:34.201Z,8.30
2023-01-02T11:43:05.969Z,8.28
2023-01-02T11:46:31.180Z,8.22
2023-01-02T11:49:42.824Z,8.13
2023-01-02T11:53:12.949Z,8.10
2023-01-02T11:56:25.105Z,8.02
2023-01-02T11:59:37.807Z,7.95
2023-01-02T12:02:48.669Z,7.93
2023-01-02T12:06:25.711Z,7.86
2023-01-02T12:09:51.020Z,7.82
2023-01-02T12:13:16.687Z,7.79
2023-01-02T12:16:34.299Z,7.83
2023-01-02T12:20:12.118Z,7.76
2023-01-02T12:24:13.783Z,7.75
2023-01-02T12:27:28.545Z,7.72
2023-01-02T12:30:37.881Z,7.72
2023-01-02T12:33:56.111Z,7.75
2023-01-02T12:37:06.601Z,7.76
2023-01-02T12:40:31.748Z,7.75
2023-01-02T12:44:06.823Z,7.76
2023-01-02T12:47:31.695Z,7.78
2023-01-02T12:50:59.935Z,7.79
2023-01-02T12:54:52.270Z,7.76
2023-01-02T12:58:37.931Z,7.78
2023-01-02T13:01:58.745Z,7.77
2023-01-02T13:05:17.231Z,7.71
2023-01-02T13:09:03.367Z,7.69
2023-01-02T13:12:17.043Z,7.66
2023-01-02T13:15:52.466Z,7.68
2023-01-02T13:19:36.124Z,7.72
2023-01-02T13:23:12.537Z,7.65
2023-01-02T13:26:24.798Z,7.57
2023-01-02T13:29:44.328Z,7.61
2023-01-02T13:32:48.786Z,7.56
2023-01-02T13:35:53.470Z,7.54
2023-01-02T13:39:14.120Z,7.54
2023-01-02T13:42:49.529Z,7.58
2023-01-02T13:45:55.320Z,7.63
2023-01-02T13:49:06.249Z,7.54
2023-01-02T13:52:29.418Z,7.47
2023-01-02T13:56:14.804Z,7.42
2023-01-02T13:59:42.032Z,7.41
2023-01-02T14:03:23.054Z,7.42
2023-01-02T14:06:33.532Z,7.33
2023-01-02T14:10:02.812Z,7.35
2023-01-02T14:13:12.248Z,7.38
2023-01-02T14:16:33.326Z,7.33
2023-01-02T14:19:38.380Z,7.30
2023-01-02T14:23:02.195Z,7.33
2023-01-02T14:26:06.966Z,7.34
2023-01-02T14:29:16.518Z,7.36
2023-01-02T14:32:42.373Z,7.38
2023-01-02T14:35:55.265Z,7.35
2023-01-02T14:39:03.081Z,7.38
2023-01-02T14:43:27.819Z,7.42
2023-01-02T14:46:32.659Z,7.39
2023-01-02T14:49:38.512Z,7.40
2023-01-02T14:52:50.737Z,7.48
2023-01-02T14:56:03.818Z,7.42
2023-01-02T14:59:23.498Z,7.40
2023-01-02T15:02:38.378Z,7.39
2023-01-02T15:05:56.606Z,7.39
2023-01-02T15:09:09.659Z,7.39
2023-01-02T15:12:41.563Z,7.40
2023-01-02T15:15:53.901Z,7.39
2023-01-02T15:19:00.271Z,7.38
2023-01-02T15:22:18.282Z,7.33
2023-01-02T15:25:40.405Z,7.34
2023-01-02T15:28:53.796Z,7.39
2023-01-02T15:32:00.854Z,7.31
2023-01-02T15:35:24.166Z,7.31
2023-01-02T15:38:28.939Z,7.22
2023-01-02T15:41:33.370Z,7.25
2023-01-02T15:44:56.643Z,7.28
2023-01-02T15:48:02.780Z,7.29
2023-01-02T15:51:13.850Z,7.31
2023-01-02T15:54:18.772Z,7.32
2023-01-02T15:57:32.011Z,7.38
2023-01-02T16:00:41.533Z,7.42
2023-01-02T16:04:01.221Z,7.39
2023-01-02T16:07:29.184Z,7.35
2023-01-02T16:10:33.665Z,7.43
2023-01-02T16:14:13.891Z,7.51
2023-01-02T16:17:32.597Z,7.50
2023-01-02T16:20:37.074Z,7.51
2023-01-02T16:23:48.988Z,7.50
2023-01-02T16:26:53.602Z,7.51
2023-01-02T16:29:59.615Z,7.49
2023-01-02T16:33:26.801Z,7.49
2023-01-02T16:36:31.342Z,7.53
2023-01-02T16:39:49.241Z,7.55
2023-01-02T16:43:05.063Z,7.55
2023-01-02T16:46:13.763Z,7.55
2023-01-02T16:49:22.185Z,7.59
2023-01-02T16:52:26.858Z,7.58
2023-01-02T16:55:31.593Z,7.58
2023-01-02T16:58:36.067Z,7.63
2023-01-02T17:01:40.576Z,7.60
2023-01-02T17:04:45.250Z,7.61
2023-01-02T17:07:49.587Z,7.63
2023-01-02T17:10:55.719Z,7.65
2023-01-02T17:14:02.224Z,7.55
2023-01-02T17:17:06.680Z,7.59
2023-01-02T17:20:13.488Z,7.57
2023-01-02T17:23:21.613Z,7.56
2023-01-02T17:26:26.583Z,7.55
2023-01-02T17:29:33.428Z,7.57
2023-01-02T17:32:37.719Z,7.56
2023-01-02T17:35:42.148Z,7.56
2023-01-02T17:38:46.558Z,7.56
2023-01-02T17:41:51.875Z,7.50
2023-01-02T17:44:56.432Z,7.49
2023-01-02T17:48:10.519Z,7.46
2023-01-02T17:51:15.763Z,7.45
2023-01-02T17:54:20.141Z,7.40
2023-01-02T17:57:25.100Z,7.39
2023-01-02T18:00:29.500Z,7.34
2023-01-02T18:03:33.403Z,7.31
2023-01-02T18:06:38.653Z,7.30
2023-01-02T18:09:44.067Z,7.35
2023-01-02T18:13:10.919Z,7.32
2023-01-02T18:16:24.356Z,7.33
2023-01-02T18:19:37.612Z,7.30
2023-01-02T18:22:48.316Z,7.29
2023-01-02T18:25:53.864Z,7.25
2023-01-02T18:29:09.355Z,7.21
2023-01-02T18:32:19.141Z,7.14
2023-01-02T18:35:56.152Z,7.14
2023-01-02T18:39:10.508Z,7.15
2023-01-02T18:42:26.721Z,7.15
2023-01-02T18:45:31.593Z,7.19
2023-01-02T18:48:35.909Z,7.19
2023-01-02T18:51:40.281Z,7.17
2023-01-02T18:54:51.454Z,7.17
2023-01-02T18:58:07.617Z,7.13
2023-01-02T19:01:24.059Z,7.11
2023-01-02T19:04:39.936Z,7.09
2023-01-02T19:07:44.259Z,7.09
2023-01-02T19:10:55.867Z,7.00
2023-01-02T19:14:23.392Z,6.99
2023-01-02T19:17:32.564Z,6.97
2023-01-02T19:20:37.056Z,6.95
2023-01-02T19:24:02.148Z,6.84
2023-01-02T19:27:29.550Z,6.76
2023-01-02T19:30:35.840Z,6.76
2023-01-02T19:33:48.024Z,6.69
2023-01-02T19:37:19.719Z,6.66
2023-01-02T19:40:24.477Z,6.57
2023-01-02T19:43:28.545Z,6.53
2023-01-02T19:46:32.941Z,6.47
2023-01-02T19:49:38.388Z,6.43
2023-01-02T19:52:43.349Z,6.40
2023-01-02T19:55:48.297Z,6.40
2023-01-02T19:58:54.497Z,6.35
2023-01-02T20:01:59.823Z,6.40
2023-01-02T20:05:05.051Z,6.36
2023-01-02T20:08:09.750Z,6.27
2023-01-02T20:11:34.775Z,6.23
2023-01-02T20:14:40.042Z,6.23
2023-01-02T20:17:45.585Z,6.18
2023-01-02T20:20:50.357Z,6.18
2023-01-02T20:23:56.835Z,6.12
2023-01-02T20:27:02.783Z,6.09
2023-01-02T20:30:09.491Z,6.11
2023-01-02T20:33:14.311Z,6.04
2023-01-02T20:36:18.565Z,6.02
2023-01-02T20:39:23.507Z,6.01
2023-01-02T20:42:27.894Z,5.95
2023-01-02T20:45:31.898Z,5.94
2023-01-02T20:48:36.243Z,5.93
2023-01-02T20:51:40.600Z,5.90
2023-01-02T20:54:45.150Z,5.87
2023-01-02T20:57:51.601Z,5.88
2023-01-02T21:00:57.776Z,5.87
2023-01-02T21:04:04.127Z,5.85
2023-01-02T21:07:08.462Z,5.83
2023-01-02T21:10:12.782Z,5.82
2023-01-02T21:13:17.103Z,5.82
2023-01-02T21:16:21.567Z,5.82
2023-01-02T21:19:26.229Z,5.78
2023-01-02T21:22:30.549Z,5.79
2023-01-02T21:25:36.878Z,5.79
2023-01-02T21:28:44.011Z,5.79
2023-01-02T21:31:48.821Z,5.74
2023-01-02T21:34:53.573Z,5.80
2023-01-02T21:37:58.652Z,5.73
2023-01-02T21:41:22.154Z,5.67
2023-01-02T21:44:26.951Z,5.65
2023-01-02T21:47:30.993Z,5.66
2023-01-02T21:50:35.934Z,5.64
2023-01-02T21:53:40.861Z,5.61
2023-01-02T21:56:45.155Z,5.66
2023-01-02T21:59:49.434Z,5.57
2023-01-02T22:02:54.200Z,5.56
2023-01-02T22:05:58.627Z,5.53
2023-01-02T22:09:03.686Z,5.49
2023-01-02T22:12:08.410Z,5.44
2023-01-02T22:15:13.486Z,5.37
2023-01-02T22:18:18.003Z,5.40
2023-01-02T22:21:22.451Z,5.40
2023-01-02T22:24:27.587Z,5.39
2023-01-02T22:27:32.265Z,5.30
2023-01-02T22:30:37.530Z,5.26
2023-01-02T22:33:42.573Z,5.23
2023-01-02T22:36:47.137Z,5.14
2023-01-02T22:39:51.446Z,5.14
2023-01-02T22:43:05.301Z,5.17
2023-01-02T22:46:22.473Z,5.14
2023-01-02T22:49:30.277Z,5.21
2023-01-02T22:52:35.493Z,5.14
2023-01-02T22:55:41.206Z,5.17
2023-01-02T22:58:47.091Z,5.19
2023-01-02T23:01:52.199Z,5.21
2023-01-02T23:04:56.747Z,5.18
2023-01-02T23:08:02.486Z,5.21
2023-01-02T23:11:08.855Z,5.15
2023-01-02T23:14:14.065Z,5.15
2023-01-02T23:17:36.961Z,5.13
2023-01-02T23:20:41.752Z,5.13
2023-01-02T23:23:47.552Z,5.07
2023-01-02T23:26:54.969Z,5.10
2023-01-02T23:29:59.327Z,5.08
2023-01-02T23:33:04.056Z,5.10
2023-01-02T23:36:08.831Z,5.01
2023-01-02T23:39:16.435Z,4.94
2023-01-02T23:42:20.784Z,4.95
2023-01-02T23:45:25.159Z,4.92
2023-01-02T23:48:29.443Z,4.82
2023-01-02T23:51:34.491Z,4.86
2023-01-02T23:54:38.903Z,4.89
2023-01-02T23:57:44.302Z,4.89
